sensor_id;sensor_type;location;lat;lon;timestamp;pressure;altitude;pressure_sealevel;temperature;humidity
20023;BME280;10172;42.054;24.546;2023-04-01T00:00:24;97276.22;;;9.95;90.87
20023;BME280;10172;42.054;24.546;2023-04-01T00:02:49;97298.13;;;10.30;89.23
20023;BME280;10172;42.054;24.546;2023-04-01T00:05:15;97282.06;;;10.32;89.96
20023;BME280;10172;42.054;24.546;2023-04-01T00:07:42;97279.03;;;9.49;97.84
20023;BME280;10172;42.054;24.546;2023-04-01T00:10:10;97296.25;;;9.99;93.39
20023;BME280;10172;42.054;24.546;2023-04-01T00:12:36;97299.47;;;10.67;89.42
20023;BME280;10172;42.054;24.546;2023-04-01T00:15:04;97283.34;;;10.90;86.96
20023;BME280;10172;42.054;24.546;2023-04-01T00:17:29;97287.00;;;10.89;86.53
20023;BME280;10172;42.054;24.546;2023-04-01T00:19:55;97277.72;;;10.31;90.05
20023;BME280;10172;42.054;24.546;2023-04-01T00:22:22;97287.47;;;10.41;90.30
20023;BME280;10172;42.054;24.546;2023-04-01T00:24:48;97289.53;;;10.69;88.11
20023;BME280;10172;42.054;24.546;2023-04-01T00:27:13;97286.28;;;10.34;91.63
20023;BME280;10172;42.054;24.546;2023-04-01T00:29:42;97286.38;;;9.90;95.54
20023;BME280;10172;42.054;24.546;2023-04-01T00:32:08;97282.50;;;10.16;93.39
20023;BME280;10172;42.054;24.546;2023-04-01T00:34:33;97281.81;;;10.66;92.22
20023;BME280;10172;42.054;24.546;2023-04-01T00:36:58;97294.50;;;9.55;100.00
20023;BME280;10172;42.054;24.546;2023-04-01T00:39:24;97288.72;;;10.58;94.35
20023;BME280;10172;42.054;24.546;2023-04-01T00:41:50;97297.84;;;10.12;93.41
20023;BME280;10172;42.054;24.546;2023-04-01T00:44:24;97290.72;;;9.80;95.83
20023;BME280;10172;42.054;24.546;2023-04-01T00:46:50;97308.63;;;9.44;100.00
20023;BME280;10172;42.054;24.546;2023-04-01T00:49:19;97296.94;;;10.12;96.44
20023;BME280;10172;42.054;24.546;2023-04-01T00:51:46;97283.69;;;10.01;95.02
20023;BME280;10172;42.054;24.546;2023-04-01T00:54:14;97290.31;;;10.49;91.34
20023;BME280;10172;42.054;24.546;2023-04-01T00:56:52;97305.34;;;9.74;97.55
20023;BME280;10172;42.054;24.546;2023-04-01T00:59:29;97302.03;;;10.04;96.65
20023;BME280;10172;42.054;24.546;2023-04-01T01:01:55;97283.63;;;10.34;93.47
20023;BME280;10172;42.054;24.546;2023-04-01T01:04:31;97301.28;;;10.88;89.84
20023;BME280;10172;42.054;24.546;2023-04-01T01:12:41;97287.06;;;10.98;88.82
20023;BME280;10172;42.054;24.546;2023-04-01T01:26:22;97274.50;;;10.05;100.00
20023;BME280;10172;42.054;24.546;2023-04-01T01:37:16;97259.53;;;12.19;83.64
20023;BME280;10172;42.054;24.546;2023-04-01T01:39:45;97260.53;;;12.56;80.21
20023;BME280;10172;42.054;24.546;2023-04-01T01:42:15;97262.50;;;12.73;79.63
20023;BME280;10172;42.054;24.546;2023-04-01T01:44:44;97264.28;;;13.01;77.45
20023;BME280;10172;42.054;24.546;2023-04-01T01:47:11;97257.22;;;10.95;92.92
20023;BME280;10172;42.054;24.546;2023-04-01T01:49:38;97254.81;;;10.92;94.57
20023;BME280;10172;42.054;24.546;2023-04-01T01:52:05;97270.66;;;9.98;100.00
20023;BME280;10172;42.054;24.546;2023-04-01T01:54:31;97266.66;;;10.46;100.00
20023;BME280;10172;42.054;24.546;2023-04-01T01:57:04;97254.88;;;11.01;94.66
20023;BME280;10172;42.054;24.546;2023-04-01T01:59:31;97237.88;;;10.72;95.99
20023;BME280;10172;42.054;24.546;2023-04-01T02:01:59;97249.97;;;9.58;100.00
20023;BME280;10172;42.054;24.546;2023-04-01T02:04:25;97226.84;;;9.16;100.00
20023;BME280;10172;42.054;24.546;2023-04-01T02:07:02;97225.00;;;10.04;100.00
20023;BME280;10172;42.054;24.546;2023-04-01T02:09:29;97238.84;;;9.76;100.00
20023;BME280;10172;42.054;24.546;2023-04-01T02:12:05;97230.91;;;10.07;100.00
20023;BME280;10172;42.054;24.546;2023-04-01T02:17:06;97240.81;;;11.20;94.75
20023;BME280;10172;42.054;24.546;2023-04-01T02:19:37;97243.38;;;11.61;91.20
20023;BME280;10172;42.054;24.546;2023-04-01T02:22:08;97220.69;;;10.55;99.81
20023;BME280;10172;42.054;24.546;2023-04-01T02:24:35;97218.69;;;9.73;100.00
20023;BME280;10172;42.054;24.546;2023-04-01T02:27:01;97221.34;;;10.27;100.00
20023;BME280;10172;42.054;24.546;2023-04-01T02:29:27;97214.38;;;10.36;100.00
20023;BME280;10172;42.054;24.546;2023-04-01T02:31:53;97219.78;;;10.45;100.00
20023;BME280;10172;42.054;24.546;2023-04-01T02:34:21;97217.50;;;10.82;98.74
20023;BME280;10172;42.054;24.546;2023-04-01T02:36:49;97213.94;;;11.23;95.21
20023;BME280;10172;42.054;24.546;2023-04-01T02:39:15;97226.94;;;11.96;89.85
20023;BME280;10172;42.054;24.546;2023-04-01T02:41:42;97219.69;;;12.08;87.65
20023;BME280;10172;42.054;24.546;2023-04-01T02:44:09;97235.75;;;11.47;91.92
20023;BME280;10172;42.054;24.546;2023-04-01T02:46:35;97216.13;;;9.83;100.00
20023;BME280;10172;42.054;24.546;2023-04-01T02:49:01;97211.78;;;9.71;100.00
20023;BME280;10172;42.054;24.546;2023-04-01T02:51:26;97216.69;;;9.43;100.00
20023;BME280;10172;42.054;24.546;2023-04-01T02:53:52;97213.06;;;9.33;100.00
20023;BME280;10172;42.054;24.546;2023-04-01T02:56:17;97219.06;;;9.57;100.00
20023;BME280;10172;42.054;24.546;2023-04-01T02:58:44;97207.78;;;9.87;100.00
20023;BME280;10172;42.054;24.546;2023-04-01T03:01:10;97217.19;;;9.26;100.00
20023;BME280;10172;42.054;24.546;2023-04-01T03:03:35;97208.00;;;8.86;100.00
20023;BME280;10172;42.054;24.546;2023-04-01T03:06:08;97208.00;;;8.86;100.00
20023;BME280;10172;42.054;24.546;2023-04-01T03:08:34;97213.22;;;9.21;100.00
20023;BME280;10172;42.054;24.546;2023-04-01T03:11:00;97212.50;;;9.08;100.00
20023;BME280;10172;42.054;24.546;2023-04-01T03:13:25;97212.00;;;9.14;100.00
20023;BME280;10172;42.054;24.546;2023-04-01T03:15:51;97188.38;;;8.88;100.00
20023;BME280;10172;42.054;24.546;2023-04-01T03:18:17;97204.63;;;8.73;100.00
20023;BME280;10172;42.054;24.546;2023-04-01T03:20:42;97197.84;;;8.23;100.00
20023;BME280;10172;42.054;24.546;2023-04-01T03:23:08;97192.63;;;8.10;100.00
20023;BME280;10172;42.054;24.546;2023-04-01T03:25:33;97189.41;;;8.53;100.00
20023;BME280;10172;42.054;24.546;2023-04-01T03:27:59;97186.41;;;8.79;100.00
20023;BME280;10172;42.054;24.546;2023-04-01T03:30:25;97177.38;;;8.82;100.00
20023;BME280;10172;42.054;24.546;2023-04-01T03:32:51;97173.78;;;8.94;100.00
20023;BME280;10172;42.054;24.546;2023-04-01T03:35:17;97165.97;;;8.35;100.00
20023;BME280;10172;42.054;24.546;2023-04-01T03:37:42;97174.81;;;8.12;100.00
20023;BME280;10172;42.054;24.546;2023-04-01T03:40:08;97186.25;;;7.78;100.00
20023;BME280;10172;42.054;24.546;2023-04-01T03:42:33;97176.91;;;7.96;100.00
20023;BME280;10172;42.054;24.546;2023-04-01T03:45:00;97180.25;;;8.22;100.00
20023;BME280;10172;42.054;24.546;2023-04-01T03:47:25;97178.59;;;8.78;100.00
20023;BME280;10172;42.054;24.546;2023-04-01T03:49:51;97176.44;;;8.83;100.00
20023;BME280;10172;42.054;24.546;2023-04-01T03:52:16;97174.69;;;8.37;100.00
20023;BME280;10172;42.054;24.546;2023-04-01T03:54:41;97173.31;;;9.00;100.00
20023;BME280;10172;42.054;24.546;2023-04-01T03:57:07;97173.16;;;9.35;100.00
20023;BME280;10172;42.054;24.546;2023-04-01T03:59:33;97180.44;;;9.76;100.00
20023;BME280;10172;42.054;24.546;2023-04-01T04:01:58;97169.91;;;9.31;100.00
20023;BME280;10172;42.054;24.546;2023-04-01T04:04:24;97170.38;;;9.36;100.00
20023;BME280;10172;42.054;24.546;2023-04-01T04:06:49;97180.16;;;8.80;100.00
20023;BME280;10172;42.054;24.546;2023-04-01T04:09:16;97175.06;;;8.55;100.00
20023;BME280;10172;42.054;24.546;2023-04-01T04:11:41;97167.88;;;8.90;100.00
20023;BME280;10172;42.054;24.546;2023-04-01T04:14:07;97167.00;;;8.22;100.00
20023;BME280;10172;42.054;24.546;2023-04-01T04:16:34;97167.88;;;9.13;100.00
20023;BME280;10172;42.054;24.546;2023-04-01T04:19:02;97157.81;;;8.04;100.00
20023;BME280;10172;42.054;24.546;2023-04-01T04:21:27;97157.53;;;8.30;100.00
20023;BME280;10172;42.054;24.546;2023-04-01T04:23:53;97170.47;;;8.35;100.00
20023;BME280;10172;42.054;24.546;2023-04-01T04:26:18;97162.47;;;8.81;100.00
20023;BME280;10172;42.054;24.546;2023-04-01T04:28:44;97167.91;;;9.55;100.00
20023;BME280;10172;42.054;24.546;2023-04-01T04:31:09;97151.09;;;8.90;100.00
20023;BME280;10172;42.054;24.546;2023-04-01T04:33:35;97169.84;;;9.53;100.00
20023;BME280;10172;42.054;24.546;2023-04-01T04:36:02;97179.69;;;9.74;100.00
20023;BME280;10172;42.054;24.546;2023-04-01T04:38:28;97188.19;;;9.99;100.00
20023;BME280;10172;42.054;24.546;2023-04-01T04:40:54;97184.06;;;10.59;100.00
20023;BME280;10172;42.054;24.546;2023-04-01T04:43:20;97197.28;;;11.30;100.00
20023;BME280;10172;42.054;24.546;2023-04-01T04:45:46;97190.22;;;11.50;97.84
20023;BME280;10172;42.054;24.546;2023-04-01T04:48:14;97199.56;;;11.84;97.46
20023;BME280;10172;42.054;24.546;2023-04-01T04:50:50;97192.56;;;11.43;98.81
20023;BME280;10172;42.054;24.546;2023-04-01T04:53:19;97188.34;;;11.41;98.63
20023;BME280;10172;42.054;24.546;2023-04-01T04:55:49;97196.47;;;11.00;100.00
20023;BME280;10172;42.054;24.546;2023-04-01T04:58:15;97200.00;;;11.70;98.50
20023;BME280;10172;42.054;24.546;2023-04-01T05:00:41;97193.53;;;11.73;95.60
20023;BME280;10172;42.054;24.546;2023-04-01T05:03:07;97199.25;;;11.28;100.00
20023;BME280;10172;42.054;24.546;2023-04-01T05:05:33;97212.31;;;11.71;96.21
20023;BME280;10172;42.054;24.546;2023-04-01T05:07:58;97201.31;;;11.55;97.01
20023;BME280;10172;42.054;24.546;2023-04-01T05:10:24;97188.66;;;12.07;92.87
20023;BME280;10172;42.054;24.546;2023-04-01T05:12:49;97171.56;;;12.38;91.18
20023;BME280;10172;42.054;24.546;2023-04-01T05:15:15;97164.38;;;11.90;95.10
20023;BME280;10172;42.054;24.546;2023-04-01T05:17:41;97185.72;;;12.10;95.00
20023;BME280;10172;42.054;24.546;2023-04-01T05:20:06;97182.19;;;11.80;96.78
20023;BME280;10172;42.054;24.546;2023-04-01T05:22:32;97166.63;;;12.14;94.82
20023;BME280;10172;42.054;24.546;2023-04-01T05:24:58;97150.78;;;12.51;91.51
20023;BME280;10172;42.054;24.546;2023-04-01T05:27:23;97144.16;;;12.65;88.57
20023;BME280;10172;42.054;24.546;2023-04-01T05:29:49;97160.06;;;12.93;86.63
20023;BME280;10172;42.054;24.546;2023-04-01T05:32:15;97165.16;;;12.77;87.74
20023;BME280;10172;42.054;24.546;2023-04-01T05:34:40;97148.06;;;12.70;87.68
20023;BME280;10172;42.054;24.546;2023-04-01T05:37:06;97143.56;;;12.61;88.31
20023;BME280;10172;42.054;24.546;2023-04-01T05:39:38;97141.81;;;9.72;100.00
20023;BME280;10172;42.054;24.546;2023-04-01T05:42:06;97127.47;;;10.77;100.00
20023;BME280;10172;42.054;24.546;2023-04-01T05:44:32;97138.72;;;11.30;100.00
20023;BME280;10172;42.054;24.546;2023-04-01T05:46:58;97129.19;;;11.18;100.00
20023;BME280;10172;42.054;24.546;2023-04-01T05:49:23;97143.00;;;10.72;100.00
20023;BME280;10172;42.054;24.546;2023-04-01T05:51:48;97135.22;;;10.90;100.00
20023;BME280;10172;42.054;24.546;2023-04-01T05:54:14;97138.88;;;11.29;100.00
20023;BME280;10172;42.054;24.546;2023-04-01T05:56:40;97118.25;;;11.90;96.91
20023;BME280;10172;42.054;24.546;2023-04-01T05:59:05;97091.47;;;12.11;93.35
20023;BME280;10172;42.054;24.546;2023-04-01T06:01:31;97087.38;;;12.07;94.35
20023;BME280;10172;42.054;24.546;2023-04-01T06:03:56;97091.41;;;12.39;91.95
20023;BME280;10172;42.054;24.546;2023-04-01T06:06:27;97073.22;;;12.16;93.00
20023;BME280;10172;42.054;24.546;2023-04-01T06:08:53;97073.00;;;12.46;91.45
20023;BME280;10172;42.054;24.546;2023-04-01T06:19:46;97047.84;;;12.58;91.57
20023;BME280;10172;42.054;24.546;2023-04-01T06:22:23;97052.91;;;12.88;89.78
20023;BME280;10172;42.054;24.546;2023-04-01T06:27:41;97051.53;;;13.11;87.46
20023;BME280;10172;42.054;24.546;2023-04-01T06:32:57;97056.28;;;13.17;88.24
20023;BME280;10172;42.054;24.546;2023-04-01T06:35:45;97074.97;;;12.44;93.02
20023;BME280;10172;42.054;24.546;2023-04-01T06:41:26;97080.06;;;13.38;89.22
20023;BME280;10172;42.054;24.546;2023-04-01T06:46:47;97095.09;;;11.90;97.39
20023;BME280;10172;42.054;24.546;2023-04-01T06:52:00;97086.63;;;13.16;90.63
20023;BME280;10172;42.054;24.546;2023-04-01T06:54:40;97083.00;;;13.17;90.08
20023;BME280;10172;42.054;24.546;2023-04-01T06:59:42;97070.84;;;13.33;88.60
20023;BME280;10172;42.054;24.546;2023-04-01T07:04:43;97054.91;;;12.86;90.80
20023;BME280;10172;42.054;24.546;2023-04-01T07:10:03;97060.25;;;13.41;89.00
20023;BME280;10172;42.054;24.546;2023-04-01T07:12:46;97060.50;;;13.65;88.39
20023;BME280;10172;42.054;24.546;2023-04-01T07:15:30;97067.19;;;13.69;86.04
20023;BME280;10172;42.054;24.546;2023-04-01T07:18:21;97058.94;;;13.45;88.37
20023;BME280;10172;42.054;24.546;2023-04-01T07:20:48;97051.47;;;13.66;87.79
20023;BME280;10172;42.054;24.546;2023-04-01T07:23:23;97046.88;;;13.41;89.67
20023;BME280;10172;42.054;24.546;2023-04-01T07:26:00;97034.22;;;12.88;93.45
20023;BME280;10172;42.054;24.546;2023-04-01T07:28:30;97048.69;;;10.86;100.00
20023;BME280;10172;42.054;24.546;2023-04-01T07:31:09;97038.31;;;10.93;100.00
20023;BME280;10172;42.054;24.546;2023-04-01T07:33:52;97027.63;;;11.52;100.00
20023;BME280;10172;42.054;24.546;2023-04-01T07:36:48;97043.38;;;10.96;100.00
20023;BME280;10172;42.054;24.546;2023-04-01T07:58:31;97061.53;;;10.20;100.00
20023;BME280;10172;42.054;24.546;2023-04-01T08:06:20;97028.88;;;11.19;100.00
20023;BME280;10172;42.054;24.546;2023-04-01T08:08:53;97026.03;;;10.92;100.00
20023;BME280;10172;42.054;24.546;2023-04-01T08:20:05;97025.75;;;12.29;100.00
20023;BME280;10172;42.054;24.546;2023-04-01T08:22:28;97020.75;;;11.49;100.00
20023;BME280;10172;42.054;24.546;2023-04-01T08:24:58;97015.75;;;10.87;100.00
20023;BME280;10172;42.054;24.546;2023-04-01T08:28:02;97005.75;;;11.10;100.00
20023;BME280;10172;42.054;24.546;2023-04-01T08:33:16;97002.50;;;11.06;100.00
20023;BME280;10172;42.054;24.546;2023-04-01T08:35:56;97005.06;;;11.94;100.00
20023;BME280;10172;42.054;24.546;2023-04-01T08:38:44;96989.56;;;11.70;100.00
20023;BME280;10172;42.054;24.546;2023-04-01T08:44:10;96978.91;;;11.70;100.00
20023;BME280;10172;42.054;24.546;2023-04-01T08:49:48;96968.78;;;12.30;100.00
20023;BME280;10172;42.054;24.546;2023-04-01T09:04:05;96949.59;;;11.70;100.00
20023;BME280;10172;42.054;24.546;2023-04-01T09:07:12;96934.38;;;11.99;100.00
20023;BME280;10172;42.054;24.546;2023-04-01T09:13:10;96933.47;;;11.43;100.00
20023;BME280;10172;42.054;24.546;2023-04-01T09:15:54;96920.56;;;12.41;100.00
20023;BME280;10172;42.054;24.546;2023-04-01T09:21:29;96914.09;;;12.71;100.00
20023;BME280;10172;42.054;24.546;2023-04-01T09:35:36;96879.78;;;15.39;78.54
20023;BME280;10172;42.054;24.546;2023-04-01T09:38:30;96887.63;;;15.41;79.55
20023;BME280;10172;42.054;24.546;2023-04-01T09:43:46;96885.63;;;15.27;77.98
20023;BME280;10172;42.054;24.546;2023-04-01T09:54:58;96874.19;;;16.60;71.28
20023;BME280;10172;42.054;24.546;2023-04-01T10:06:35;96849.47;;;16.73;72.33
20023;BME280;10172;42.054;24.546;2023-04-01T10:14:30;96817.69;;;17.82;71.88
20023;BME280;10172;42.054;24.546;2023-04-01T10:28:37;96787.31;;;18.11;70.38
20023;BME280;10172;42.054;24.546;2023-04-01T10:45:10;96743.59;;;19.44;62.82
20023;BME280;10172;42.054;24.546;2023-04-01T10:48:05;96732.22;;;18.78;65.75
20023;BME280;10172;42.054;24.546;2023-04-01T10:53:46;96711.91;;;19.46;65.68
20023;BME280;10172;42.054;24.546;2023-04-01T10:59:15;96690.84;;;20.03;60.05
20023;BME280;10172;42.054;24.546;2023-04-01T11:35:08;96680.22;;;19.54;62.58
20023;BME280;10172;42.054;24.546;2023-04-01T11:53:52;96662.81;;;18.80;64.31
20023;BME280;10172;42.054;24.546;2023-04-01T12:02:24;96673.03;;;15.75;83.97
20023;BME280;10172;42.054;24.546;2023-04-01T12:08:10;96658.06;;;15.41;85.18
20023;BME280;10172;42.054;24.546;2023-04-01T12:14:03;96638.31;;;15.50;87.20
20023;BME280;10172;42.054;24.546;2023-04-01T12:21:58;96618.56;;;18.68;69.92
20023;BME280;10172;42.054;24.546;2023-04-01T12:30:06;96596.88;;;19.32;65.46
20023;BME280;10172;42.054;24.546;2023-04-01T12:32:46;96607.38;;;17.86;69.57
20023;BME280;10172;42.054;24.546;2023-04-01T12:52:43;96581.84;;;17.32;75.49
20023;BME280;10172;42.054;24.546;2023-04-01T12:55:41;96579.22;;;15.75;84.14
20023;BME280;10172;42.054;24.546;2023-04-01T13:09:41;96573.97;;;16.04;80.23
20023;BME280;10172;42.054;24.546;2023-04-01T13:18:09;96579.22;;;15.75;84.95
20023;BME280;10172;42.054;24.546;2023-04-01T13:23:33;96620.06;;;15.38;87.71
20023;BME280;10172;42.054;24.546;2023-04-01T13:29:09;96749.50;;;15.46;85.90
20023;BME280;10172;42.054;24.546;2023-04-01T13:44:37;96815.69;;;14.40;97.48
20023;BME280;10172;42.054;24.546;2023-04-01T13:47:11;96822.81;;;14.73;99.76
20023;BME280;10172;42.054;24.546;2023-04-01T13:49:53;96828.66;;;14.26;100.00
20023;BME280;10172;42.054;24.546;2023-04-01T13:52:38;96854.75;;;14.24;100.00
20023;BME280;10172;42.054;24.546;2023-04-01T13:55:33;96876.06;;;14.42;100.00
20023;BME280;10172;42.054;24.546;2023-04-01T14:00:46;96879.03;;;14.05;100.00
20023;BME280;10172;42.054;24.546;2023-04-01T14:03:41;96879.59;;;14.17;100.00
20023;BME280;10172;42.054;24.546;2023-04-01T14:11:30;96876.63;;;14.28;100.00
20023;BME280;10172;42.054;24.546;2023-04-01T14:19:07;96847.03;;;14.21;100.00
20023;BME280;10172;42.054;24.546;2023-04-01T14:22:22;96845.81;;;14.50;100.00
20023;BME280;10172;42.054;24.546;2023-04-01T14:44:23;96744.13;;;15.38;100.00
20023;BME280;10172;42.054;24.546;2023-04-01T14:49:41;96751.47;;;16.07;99.08
20023;BME280;10172;42.054;24.546;2023-04-01T14:52:14;96747.56;;;16.18;95.47
20023;BME280;10172;42.054;24.546;2023-04-01T14:54:44;96753.59;;;16.20;93.69
20023;BME280;10172;42.054;24.546;2023-04-01T14:57:13;96750.56;;;15.84;94.48
20023;BME280;10172;42.054;24.546;2023-04-01T14:59:45;96755.84;;;15.62;98.10
20023;BME280;10172;42.054;24.546;2023-04-01T15:05:16;96749.34;;;16.03;92.06
20023;BME280;10172;42.054;24.546;2023-04-01T15:17:13;96747.56;;;16.18;95.57
20023;BME280;10172;42.054;24.546;2023-04-01T15:44:52;96708.56;;;16.07;100.00
20023;BME280;10172;42.054;24.546;2023-04-01T15:50:26;96689.22;;;15.50;100.00
20023;BME280;10172;42.054;24.546;2023-04-01T15:55:31;96703.19;;;14.49;100.00
20023;BME280;10172;42.054;24.546;2023-04-01T16:01:16;96708.34;;;13.43;100.00
20023;BME280;10172;42.054;24.546;2023-04-01T16:04:11;96709.53;;;13.40;100.00
20023;BME280;10172;42.054;24.546;2023-04-01T16:10:19;96780.53;;;13.51;100.00
20023;BME280;10172;42.054;24.546;2023-04-01T16:15:09;96790.72;;;13.55;100.00
20023;BME280;10172;42.054;24.546;2023-04-01T16:23:24;96808.50;;;13.03;100.00
20023;BME280;10172;42.054;24.546;2023-04-01T16:26:15;96814.09;;;12.75;100.00
20023;BME280;10172;42.054;24.546;2023-04-01T16:28:55;96812.25;;;13.28;100.00
20023;BME280;10172;42.054;24.546;2023-04-01T16:31:43;96816.44;;;12.95;100.00
20023;BME280;10172;42.054;24.546;2023-04-01T16:36:54;96843.25;;;13.47;100.00
20023;BME280;10172;42.054;24.546;2023-04-01T16:44:52;96813.13;;;12.13;100.00
20023;BME280;10172;42.054;24.546;2023-04-01T16:47:53;96813.19;;;12.66;100.00
20023;BME280;10172;42.054;24.546;2023-04-01T16:50:27;96787.69;;;12.19;100.00
20023;BME280;10172;42.054;24.546;2023-04-01T16:53:02;96788.19;;;12.05;100.00
20023;BME280;10172;42.054;24.546;2023-04-01T17:01:37;96742.09;;;12.22;100.00
20023;BME280;10172;42.054;24.546;2023-04-01T17:04:17;96742.91;;;12.22;100.00
20023;BME280;10172;42.054;24.546;2023-04-01T17:06:58;96736.91;;;12.38;100.00
20023;BME280;10172;42.054;24.546;2023-04-01T17:12:20;96721.78;;;11.93;100.00
20023;BME280;10172;42.054;24.546;2023-04-01T17:20:36;96729.44;;;12.59;100.00
20023;BME280;10172;42.054;24.546;2023-04-01T17:28:25;96727.97;;;11.57;100.00
20023;BME280;10172;42.054;24.546;2023-04-01T17:31:05;96726.69;;;11.61;100.00
20023;BME280;10172;42.054;24.546;2023-04-01T17:42:11;96831.28;;;13.07;100.00
20023;BME280;10172;42.054;24.546;2023-04-01T17:45:02;96860.72;;;13.59;100.00
20023;BME280;10172;42.054;24.546;2023-04-01T17:54:33;97034.22;;;12.88;100.00
20023;BME280;10172;42.054;24.546;2023-04-01T18:05:22;97071.50;;;12.34;100.00
20023;BME280;10172;42.054;24.546;2023-04-01T18:08:18;97088.41;;;12.52;100.00
20023;BME280;10172;42.054;24.546;2023-04-01T18:16:29;97063.16;;;11.81;100.00
20023;BME280;10172;42.054;24.546;2023-04-01T18:27:00;97019.94;;;11.49;100.00
20023;BME280;10172;42.054;24.546;2023-04-01T18:29:52;97027.25;;;11.94;100.00
20023;BME280;10172;42.054;24.546;2023-04-01T18:32:37;97015.16;;;12.46;100.00
20023;BME280;10172;42.054;24.546;2023-04-01T18:38:12;97009.00;;;11.61;100.00
20023;BME280;10172;42.054;24.546;2023-04-01T18:41:12;97002.69;;;11.81;100.00
20023;BME280;10172;42.054;24.546;2023-04-01T18:44:03;97023.19;;;11.71;100.00
20023;BME280;10172;42.054;24.546;2023-04-01T18:46:45;97027.66;;;11.90;100.00
20023;BME280;10172;42.054;24.546;2023-04-01T18:49:41;97023.66;;;12.23;100.00
20023;BME280;10172;42.054;24.546;2023-04-01T18:52:31;97027.66;;;11.99;100.00
20023;BME280;10172;42.054;24.546;2023-04-01T19:00:39;97031.84;;;12.02;100.00
20023;BME280;10172;42.054;24.546;2023-04-01T19:03:25;97045.88;;;11.94;100.00
20023;BME280;10172;42.054;24.546;2023-04-01T19:05:54;97040.56;;;11.75;100.00
20023;BME280;10172;42.054;24.546;2023-04-01T19:08:29;97042.63;;;12.00;100.00
20023;BME280;10172;42.054;24.546;2023-04-01T19:11:38;97044.34;;;11.92;100.00
20023;BME280;10172;42.054;24.546;2023-04-01T19:14:30;97025.81;;;12.46;100.00
20023;BME280;10172;42.054;24.546;2023-04-01T19:17:19;97034.06;;;12.90;100.00
20023;BME280;10172;42.054;24.546;2023-04-01T19:20:20;97038.69;;;12.70;100.00
20023;BME280;10172;42.054;24.546;2023-04-01T19:25:55;97021.28;;;11.05;100.00
20023;BME280;10172;42.054;24.546;2023-04-01T19:28:56;97003.69;;;11.71;100.00
20023;BME280;10172;42.054;24.546;2023-04-01T19:31:46;97005.06;;;11.08;100.00
20023;BME280;10172;42.054;24.546;2023-04-01T19:45:14;97025.59;;;11.06;100.00
20023;BME280;10172;42.054;24.546;2023-04-01T19:48:00;97024.44;;;10.40;100.00
20023;BME280;10172;42.054;24.546;2023-04-01T19:53:41;97026.16;;;9.47;100.00
20023;BME280;10172;42.054;24.546;2023-04-01T19:56:17;97032.22;;;9.90;100.00
20023;BME280;10172;42.054;24.546;2023-04-01T19:59:01;97039.28;;;10.52;100.00
20023;BME280;10172;42.054;24.546;2023-04-01T20:01:48;97030.56;;;9.57;100.00
20023;BME280;10172;42.054;24.546;2023-04-01T20:04:25;97038.53;;;9.57;100.00
20023;BME280;10172;42.054;24.546;2023-04-01T20:10:08;97037.72;;;9.78;100.00
20023;BME280;10172;42.054;24.546;2023-04-01T20:17:52;97065.25;;;11.09;100.00
20023;BME280;10172;42.054;24.546;2023-04-01T20:20:27;97069.06;;;10.76;100.00
20023;BME280;10172;42.054;24.546;2023-04-01T20:23:05;97067.47;;;9.92;100.00
20023;BME280;10172;42.054;24.546;2023-04-01T20:25:40;97076.38;;;9.71;100.00
20023;BME280;10172;42.054;24.546;2023-04-01T20:36:21;97132.03;;;9.18;100.00
20023;BME280;10172;42.054;24.546;2023-04-01T20:52:40;97161.44;;;9.37;100.00
20023;BME280;10172;42.054;24.546;2023-04-01T21:06:34;97171.81;;;8.40;100.00
20023;BME280;10172;42.054;24.546;2023-04-01T21:23:28;97173.19;;;9.01;100.00
20023;BME280;10172;42.054;24.546;2023-04-01T21:28:43;97185.13;;;8.28;100.00
20023;BME280;10172;42.054;24.546;2023-04-01T21:39:51;97219.09;;;9.35;100.00
20023;BME280;10172;42.054;24.546;2023-04-01T21:59:12;97215.09;;;9.95;100.00
20023;BME280;10172;42.054;24.546;2023-04-01T22:07:33;97200.38;;;8.24;100.00
20023;BME280;10172;42.054;24.546;2023-04-01T22:10:22;97198.47;;;8.26;100.00
20023;BME280;10172;42.054;24.546;2023-04-01T22:21:20;97213.09;;;9.00;100.00
20023;BME280;10172;42.054;24.546;2023-04-01T22:24:19;97219.91;;;9.69;100.00
20023;BME280;10172;42.054;24.546;2023-04-01T22:37:40;97219.28;;;9.66;100.00
20023;BME280;10172;42.054;24.546;2023-04-01T22:42:46;97224.84;;;9.74;100.00
20023;BME280;10172;42.054;24.546;2023-04-01T22:48:25;97226.53;;;9.63;100.00
20023;BME280;10172;42.054;24.546;2023-04-01T22:51:11;97237.19;;;9.52;100.00
20023;BME280;10172;42.054;24.546;2023-04-01T22:53:55;97239.13;;;9.28;100.00
20023;BME280;10172;42.054;24.546;2023-04-01T22:56:27;97243.09;;;9.23;100.00
20023;BME280;10172;42.054;24.546;2023-04-01T22:59:02;97239.03;;;9.19;100.00
20023;BME280;10172;42.054;24.546;2023-04-01T23:01:34;97217.88;;;8.62;100.00
20023;BME280;10172;42.054;24.546;2023-04-01T23:04:04;97215.94;;;8.64;100.00
20023;BME280;10172;42.054;24.546;2023-04-01T23:06:38;97222.69;;;8.79;100.00
20023;BME280;10172;42.054;24.546;2023-04-01T23:19:55;97208.38;;;8.70;100.00
20023;BME280;10172;42.054;24.546;2023-04-01T23:22:34;97222.25;;;9.07;100.00
20023;BME280;10172;42.054;24.546;2023-04-01T23:36:15;97237.16;;;9.63;100.00
20023;BME280;10172;42.054;24.546;2023-04-01T23:38:42;97229.22;;;9.41;100.00
20023;BME280;10172;42.054;24.546;2023-04-01T23:41:09;97232.16;;;9.16;100.00
20023;BME280;10172;42.054;24.546;2023-04-01T23:43:43;97220.34;;;8.52;100.00
20023;BME280;10172;42.054;24.546;2023-04-01T23:46:12;97220.31;;;8.76;100.00
20023;BME280;10172;42.054;24.546;2023-04-01T23:48:43;97224.34;;;8.58;100.00
20023;BME280;10172;42.054;24.546;2023-04-01T23:51:35;97232.22;;;8.81;100.00